PMZ weather

Plymouth Municipal Airport
Plymouth, North Carolina, United States

Public forecast

Using degrees Fahrenheit for public forecast. Weather courtesy of forecast.io.

Closest aviation weather report (METAR) to Plymouth Municipal Airport

Closest report is Northeastern Regional Airport, 16.1 nm (29.9 km) NE. Retrieved 2019/10/16 11:35 UTC (0 seconds ago):

KEDE 161135Z AUTO 13006KT 10SM -RA OVC120 21/20 A2985 RMK AO2 T02110197

Closest aviation forecast (TAF) to Plymouth Municipal Airport

Closest forecast is Pitt Greenville Airport, 32.2 nm (59.7 km) WSW. Retrieved 2019/10/16 06:42 UTC (4 hours ago):

TAF KPGV 160540Z 1606/1706 12003KT P6SM SCT040 BKN100 FM161200 13006KT 5SM -SHRA OVC030 FM161500 15010G15KT 4SM SHRA OVC007 FM162100 27011G17KT P6SM BKN030 FM170000 29010G17KT P6SM SCT050 AMD LTD TO CLD VIS AND WIND